Time;durP1;ratioP1;P1;durP2;ratioP2;P2;SDS_P1;SDS_P2;PMS_P1;PMS_P2;Temp;Humidity;BMP_temperature;BMP_pressure;BME280_temperature;BME280_humidity;BME280_pressure;Samples;Min_cycle;Max_cycle;Signal;HPM_P1;HPM_P2
2021/01/12 00:01:40;;;;;;;51.35;21.40;;;-3272.20;78.80;;;-7.11;80.95;96178.00;4988474;28;20116;-67
2021/01/12 00:04:06;;;;;;;47.55;20.23;;;-3272.20;78.70;;;-7.11;80.37;96181.38;4988080;28;20034;-67
2021/01/12 00:06:32;;;;;;;41.67;18.83;;;-3272.30;78.70;;;-7.08;80.34;96177.84;4988260;28;20186;-67
2021/01/12 00:08:58;;;;;;;61.80;22.25;;;-3272.30;78.70;;;-7.06;80.46;96176.03;4988574;28;20113;-67
2021/01/12 00:11:23;;;;;;;61.63;23.17;;;-3272.30;78.40;;;-7.03;79.96;96168.19;4988790;28;20062;-67
2021/01/12 00:13:49;;;;;;;51.47;21.95;;;-3272.30;78.40;;;-7.01;80.08;96161.31;4989457;28;20042;-67
2021/01/12 00:16:19;;;;;;;51.50;20.13;;;-3272.30;78.40;;;-6.98;80.74;96161.13;4987418;28;20089;-67
2021/01/12 00:18:46;;;;;;;53.60;22.73;;;-3272.40;78.50;;;-6.96;80.65;96154.22;4987382;28;20498;-66
2021/01/12 00:21:12;;;;;;;48.75;20.20;;;-3272.50;78.60;;;-6.95;80.36;96135.41;4987991;28;20062;-67
2021/01/12 00:23:38;;;;;;;50.80;21.80;;;-3272.30;78.40;;;-6.97;80.41;96136.41;4988924;28;20638;-67
2021/01/12 00:26:07;;;;;;;46.63;21.55;;;-3272.30;78.70;;;-7.00;80.33;96124.59;4989180;28;20058;-67
2021/01/12 00:28:36;;;;;;;55.35;22.52;;;-3272.20;79.30;;;-7.01;80.54;96130.63;4988556;28;20121;-67
2021/01/12 00:31:04;;;;;;;51.05;22.73;;;-3272.10;79.80;;;-6.97;80.61;96144.88;4989691;28;20038;-67
2021/01/12 00:33:30;;;;;;;49.20;21.85;;;-3272.10;79.80;;;-6.96;80.48;96159.31;5008179;28;20609;-68
2021/01/12 00:35:56;;;;;;;50.63;21.75;;;-3272.20;79.70;;;-6.92;80.98;96160.81;5007547;28;20144;-67
2021/01/12 00:38:22;;;;;;;50.47;21.20;;;-3272.30;80.00;;;-6.88;80.74;96171.69;5007975;28;20118;-67
2021/01/12 00:40:47;;;;;;;51.75;20.92;;;-3272.30;79.60;;;-6.86;80.66;96175.81;5006454;28;20065;-67
2021/01/12 00:43:13;;;;;;;50.60;21.55;;;-3272.40;79.70;;;-6.82;80.54;96176.47;5008534;28;20062;-68
2021/01/12 00:45:39;;;;;;;45.55;19.70;;;-3272.50;79.70;;;-6.77;80.55;96183.91;5007645;28;20069;-65
2021/01/12 00:48:05;;;;;;;49.40;21.20;;;-3272.50;79.30;;;-6.73;80.55;96170.88;5007864;28;20077;-66
2021/01/12 00:50:31;;;;;;;54.70;22.95;;;-3272.60;79.20;;;-6.70;80.80;96169.88;5006113;28;20042;-66
2021/01/12 00:52:57;;;;;;;49.72;21.58;;;-3272.70;79.00;;;-6.68;80.38;96162.94;5007757;28;20516;-65
2021/01/12 00:55:22;;;;;;;44.45;20.40;;;-3272.70;78.60;;;-6.67;80.63;96160.31;5007679;28;20501;-66
2021/01/12 00:57:48;;;;;;;42.22;20.75;;;-3272.70;78.50;;;-6.64;80.71;96160.13;5008250;28;20501;-65
2021/01/12 01:00:14;;;;;;;47.75;20.33;;;-3272.70;78.40;;;-6.61;80.23;96159.16;5006744;28;20069;-65
2021/01/12 01:02:40;;;;;;;45.70;19.98;;;-3272.70;78.50;;;-6.60;80.66;96156.50;5006147;28;20030;-65
2021/01/12 01:05:07;;;;;;;48.15;21.60;;;-3272.70;78.40;;;-6.59;80.67;96147.91;5007508;28;20049;-66
2021/01/12 01:07:33;;;;;;;48.00;20.23;;;-3272.80;78.40;;;-6.58;80.59;96158.97;5007488;28;20061;-66
2021/01/12 01:09:58;;;;;;;47.45;20.92;;;-3272.70;78.20;;;-6.58;80.60;96156.41;5008079;28;20391;-66
2021/01/12 01:12:24;;;;;;;48.63;21.65;;;-3272.70;78.50;;;-6.57;80.57;96161.44;5007399;28;20068;-66
2021/01/12 01:14:51;;;;;;;45.28;21.58;;;-3272.70;78.40;;;-6.55;80.65;96161.41;5007094;28;20131;-66
2021/01/12 01:17:16;;;;;;;51.10;22.35;;;-3272.60;78.60;;;-6.54;80.67;96160.50;4984219;28;20174;-66
2021/01/12 01:19:42;;;;;;;45.00;21.23;;;-3272.70;78.50;;;-6.53;80.69;96168.06;4987902;28;20163;-66
2021/01/12 01:22:08;;;;;;;54.83;22.65;;;-3272.80;78.40;;;-6.54;80.52;96160.50;4986818;28;20119;-66
2021/01/12 01:24:33;;;;;;;51.33;21.80;;;-3272.70;78.40;;;-6.51;80.65;96155.19;4987758;28;20066;-67
2021/01/12 01:26:59;;;;;;;52.42;21.33;;;-3272.80;78.40;;;-6.49;80.03;96153.38;4987263;28;20747;-67
2021/01/12 01:29:25;;;;;;;46.95;22.08;;;-3272.80;78.30;;;-6.46;80.52;96150.66;4987660;28;20566;-66
2021/01/12 01:31:51;;;;;;;47.17;21.20;;;-3272.80;78.00;;;-6.47;80.29;96141.31;4987782;28;20553;-66
2021/01/12 01:34:16;;;;;;;50.70;21.55;;;-3272.80;78.50;;;-6.46;80.41;96148.09;4982677;28;20042;-67
2021/01/12 01:36:42;;;;;;;44.20;20.02;;;-3272.70;78.50;;;-6.45;80.41;96162.53;4991128;28;20482;-66
2021/01/12 01:39:08;;;;;;;54.92;22.25;;;-3272.80;78.90;;;-6.43;80.35;96158.16;4990675;28;20672;-66
2021/01/12 01:41:33;;;;;;;49.55;21.95;;;-3272.80;79.10;;;-6.40;80.51;96157.97;4991435;28;20077;-66
2021/01/12 01:43:59;;;;;;;52.33;22.90;;;-3272.80;78.90;;;-6.39;80.38;96159.63;4991577;28;20137;-66
2021/01/12 01:46:25;;;;;;;48.03;21.17;;;-3272.80;78.80;;;-6.37;80.50;96162.09;4991367;28;20568;-66
2021/01/12 01:48:51;;;;;;;47.00;21.15;;;-3272.90;79.00;;;-6.34;80.58;96156.81;4969999;28;20118;-66
2021/01/12 01:51:17;;;;;;;43.63;20.80;;;-3273.00;78.90;;;-6.33;80.26;96154.19;4979005;28;20035;-66
2021/01/12 01:53:42;;;;;;;43.92;21.23;;;-3273.00;78.80;;;-6.33;80.52;96159.31;4974680;28;20117;-66
2021/01/12 01:56:08;;;;;;;47.63;21.48;;;-3272.90;78.90;;;-6.30;80.65;96171.09;4990430;28;20046;-66
2021/01/12 01:58:43;;;;;;;42.63;21.25;;;-3272.90;78.80;;;-6.28;81.33;96161.59;4991036;28;20108;-66
2021/01/12 02:01:10;;;;;;;41.15;20.35;;;-3273.00;79.10;;;-6.26;80.60;96168.28;4991055;28;20041;-66
2021/01/12 02:03:45;;;;;;;47.97;20.77;;;-3273.00;79.00;;;-6.24;81.53;96151.09;4990834;28;20042;-66
2021/01/12 02:06:28;;;;;;;44.78;22.63;;;-3273.10;79.10;;;-6.28;81.59;96126.59;4970970;28;20554;-66
2021/01/12 02:09:16;;;;;;;48.15;22.17;;;-3273.00;78.90;;;-6.20;81.31;96146.63;4975109;28;20046;-66
2021/01/12 02:11:42;;;;;;;43.47;20.85;;;-3273.10;78.90;;;-6.25;80.81;96116.19;4990412;28;20069;-66
2021/01/12 02:14:16;;;;;;;47.58;21.30;;;-3273.10;78.70;;;-6.14;81.18;96127.53;4989736;28;20387;-66
2021/01/12 02:16:42;;;;;;;44.88;19.77;;;-3273.20;78.80;;;-6.12;80.66;96125.72;4989442;28;20137;-66
2021/01/12 02:19:10;;;;;;;41.78;21.42;;;-3273.30;78.70;;;-6.12;80.43;96115.47;4990103;28;20038;-66
2021/01/12 02:21:43;;;;;;;47.05;21.60;;;-3273.10;78.10;;;-6.11;81.13;96101.75;4989633;28;20041;-66
2021/01/12 02:24:09;;;;;;;42.17;20.63;;;-3273.10;78.60;;;-6.11;80.60;96104.31;4990025;28;20451;-66
2021/01/12 02:26:35;;;;;;;51.70;22.17;;;-3273.10;78.60;;;-6.11;80.41;96101.75;4989257;28;20045;-66
2021/01/12 02:29:00;;;;;;;48.08;21.85;;;-3273.00;78.70;;;-6.11;80.44;96086.41;4990578;28;20629;-66
2021/01/12 02:31:30;;;;;;;45.10;20.33;;;-3273.00;79.00;;;-6.11;80.46;96101.75;4991297;28;20029;-66
2021/01/12 02:33:56;;;;;;;48.30;21.23;;;-3273.00;79.20;;;-6.11;80.46;96086.41;4990471;28;20042;-66
2021/01/12 02:36:23;;;;;;;46.65;20.58;;;-3273.00;79.40;;;-6.11;80.80;96082.13;4971408;28;20143;-66
2021/01/12 02:38:49;;;;;;;42.10;20.40;;;-3273.00;79.60;;;-6.11;80.74;96071.03;4972215;28;20046;-66
2021/01/12 02:41:16;;;;;;;44.08;22.55;;;-3273.00;79.60;;;-6.10;80.85;96070.16;4986340;28;20061;-66
2021/01/12 02:43:42;;;;;;;45.65;21.60;;;-3273.00;79.70;;;-6.10;80.80;96078.66;4989318;28;20038;-66
2021/01/12 02:46:11;;;;;;;43.22;20.80;;;-3273.00;79.70;;;-6.10;80.74;96088.91;4990403;28;20026;-66
2021/01/12 02:48:37;;;;;;;43.65;18.90;;;-3273.00;79.70;;;-6.09;80.62;96084.59;4990295;28;20043;-66
2021/01/12 02:51:05;;;;;;;45.08;20.70;;;-3273.00;79.80;;;-6.06;80.93;96097.22;4989398;28;20061;-66
2021/01/12 02:53:30;;;;;;;43.30;21.08;;;-3273.10;79.60;;;-6.03;80.94;96104.72;4990597;28;20100;-67
2021/01/12 02:55:56;;;;;;;43.50;20.23;;;-3273.20;79.60;;;-6.02;80.86;96091.84;4990694;28;20093;-66
2021/01/12 02:58:23;;;;;;;40.60;19.70;;;-3273.20;79.40;;;-6.00;80.85;96094.31;4990392;28;20050;-66
2021/01/12 03:00:48;;;;;;;44.45;21.13;;;-3273.20;79.20;;;-5.97;80.61;96089.00;4988480;28;20617;-65
2021/01/12 03:03:14;;;;;;;44.60;19.88;;;-3273.30;79.20;;;-5.96;80.78;96090.66;4988654;28;20422;-66
2021/01/12 03:05:40;;;;;;;42.40;19.40;;;-3273.30;79.30;;;-5.93;80.79;96095.59;5005163;28;20062;-66
2021/01/12 03:08:06;;;;;;;41.28;19.48;;;-3273.40;79.20;;;-5.90;80.87;96095.41;4990156;28;20054;-66
2021/01/12 03:10:32;;;;;;;42.28;19.20;;;-3273.40;79.20;;;-5.86;80.89;96091.75;4990260;28;20067;-66
2021/01/12 03:12:57;;;;;;;42.33;19.30;;;-3273.50;79.10;;;-5.85;80.84;96083.16;4989372;28;20467;-66
2021/01/12 03:15:23;;;;;;;46.53;19.55;;;-3273.50;78.90;;;-5.86;80.82;96073.81;4988318;28;20553;-66
2021/01/12 03:17:49;;;;;;;46.67;21.45;;;-3273.40;78.90;;;-5.87;80.73;96055.06;4989021;28;20826;-66
2021/01/12 03:20:15;;;;;;;46.15;20.80;;;-3273.30;79.10;;;-5.87;80.99;96049.13;4969646;28;20043;-66
2021/01/12 03:22:41;;;;;;;37.88;19.00;;;-3273.30;79.30;;;-5.86;80.88;96041.34;4989286;28;20116;-65
2021/01/12 03:25:08;;;;;;;40.10;19.38;;;-3273.30;78.90;;;-5.86;80.76;96035.41;4990271;28;20030;-66
2021/01/12 03:27:34;;;;;;;40.97;20.73;;;-3273.40;78.90;;;-5.85;80.72;96031.94;4989474;28;20038;-66
2021/01/12 03:30:00;;;;;;;47.95;20.73;;;-3273.40;78.60;;;-5.85;80.72;96029.38;4988853;28;20510;-66
2021/01/12 03:32:26;;;;;;;38.55;19.48;;;-3273.40;78.90;;;-5.86;80.76;96031.09;4989935;28;20045;-66
2021/01/12 03:34:52;;;;;;;39.95;20.17;;;-3273.50;78.90;;;-5.84;80.81;96023.34;4987944;28;20070;-66
2021/01/12 03:37:17;;;;;;;47.63;21.45;;;-3273.40;78.70;;;-5.86;80.72;96015.75;4986661;28;20018;-66
2021/01/12 03:39:43;;;;;;;46.90;20.85;;;-3273.30;78.90;;;-5.86;81.03;96012.34;4989909;28;20092;-66
2021/01/12 03:42:09;;;;;;;41.67;19.25;;;-3273.30;78.80;;;-5.84;80.92;96007.97;4989332;28;20037;-66
2021/01/12 03:44:35;;;;;;;42.15;20.38;;;-3273.30;78.70;;;-5.83;80.79;96014.72;4989958;28;20027;-66
2021/01/12 03:47:00;;;;;;;42.53;20.98;;;-3273.30;78.80;;;-5.81;80.70;96001.84;4989032;28;20096;-66
2021/01/12 03:49:26;;;;;;;44.92;19.38;;;-3273.30;79.00;;;-5.80;80.63;95994.06;4989561;28;20141;-66
2021/01/12 03:51:52;;;;;;;38.83;18.85;;;-3273.40;78.70;;;-5.79;80.85;96002.56;4989631;28;20034;-66
2021/01/12 03:54:18;;;;;;;38.08;18.90;;;-3273.40;79.10;;;-5.77;80.82;96004.09;4989574;28;20458;-66
2021/01/12 03:56:43;;;;;;;42.70;20.55;;;-3273.50;79.20;;;-5.75;80.88;95997.16;4988484;28;20027;-65
2021/01/12 03:59:09;;;;;;;41.05;18.65;;;-3273.60;78.90;;;-5.73;80.84;96008.13;4988903;28;20035;-67
2021/01/12 04:01:41;;;;;;;40.78;20.05;;;-3273.60;79.10;;;-5.72;81.40;96002.09;4989291;28;20042;-66
2021/01/12 04:04:07;;;;;;;40.20;19.55;;;-3273.60;79.10;;;-5.71;80.78;96001.16;4970906;28;20034;-67
2021/01/12 04:06:33;;;;;;;41.20;20.23;;;-3273.60;79.00;;;-5.68;81.25;96003.53;4989278;28;20038;-66
2021/01/12 04:08:58;;;;;;;39.50;19.27;;;-3273.60;79.00;;;-5.68;80.90;95988.16;4988844;28;20627;-66
2021/01/12 04:11:24;;;;;;;38.88;19.85;;;-3273.60;78.90;;;-5.65;81.15;95980.34;4989227;28;20034;-67
2021/01/12 04:13:50;;;;;;;42.92;20.48;;;-3273.60;78.70;;;-5.65;81.04;95970.09;4988058;28;20199;-70
2021/01/12 04:16:16;;;;;;;40.03;20.00;;;-3273.60;78.80;;;-5.65;80.99;95966.69;4987718;28;20038;-66
2021/01/12 04:18:41;;;;;;;42.95;19.95;;;-3273.50;79.20;;;-5.65;81.05;95976.94;4988457;28;20057;-66
2021/01/12 04:21:07;;;;;;;42.05;20.25;;;-3273.50;79.20;;;-5.64;81.07;95964.03;4989078;28;20034;-66
2021/01/12 04:23:33;;;;;;;42.53;19.48;;;-3273.60;79.20;;;-5.61;80.86;95958.72;4987530;28;20050;-66
2021/01/12 04:25:59;;;;;;;47.78;21.67;;;-3273.70;79.00;;;-5.61;81.19;95948.47;4988665;28;20073;-66
2021/01/12 04:28:24;;;;;;;38.80;19.73;;;-3273.60;78.90;;;-5.61;81.15;95951.03;4988467;28;20179;-66
2021/01/12 04:30:50;;;;;;;42.80;20.65;;;-3273.60;79.40;;;-5.61;81.27;95938.22;4987958;28;20497;-66
2021/01/12 04:33:16;;;;;;;48.60;20.13;;;-3273.60;79.50;;;-5.58;81.00;95947.47;4989030;28;20626;-66
2021/01/12 04:35:41;;;;;;;44.97;20.30;;;-3273.70;79.20;;;-5.57;81.21;95939.69;4988092;28;20765;-67
2021/01/12 04:38:07;;;;;;;39.95;19.20;;;-3273.80;79.00;;;-5.57;80.88;95934.56;4985828;28;20287;-66
2021/01/12 04:40:33;;;;;;;42.35;20.45;;;-3273.70;79.00;;;-5.55;81.01;95934.47;4988343;28;20584;-66
2021/01/12 04:42:59;;;;;;;40.22;18.92;;;-3273.60;79.30;;;-5.55;81.17;95927.59;4987112;28;20054;-66
2021/01/12 04:45:25;;;;;;;41.97;20.83;;;-3273.70;79.30;;;-5.53;81.03;95926.66;4987054;28;20200;-66
2021/01/12 04:47:51;;;;;;;43.88;20.95;;;-3273.70;79.10;;;-5.53;81.04;95921.53;4971275;28;20667;-66
2021/01/12 04:50:17;;;;;;;38.65;19.20;;;-3273.60;79.10;;;-5.53;81.09;95913.84;4986978;28;20034;-67
2021/01/12 04:52:47;;;;;;;40.85;20.05;;;-3273.60;79.20;;;-5.52;81.31;95910.38;4987919;28;20070;-67
2021/01/12 04:55:14;;;;;;;39.70;19.15;;;-3273.60;79.00;;;-5.51;81.04;95912.03;4988476;28;20045;-66
2021/01/12 04:57:39;;;;;;;38.95;18.88;;;-3273.70;79.00;;;-5.50;80.96;95908.53;4986430;28;20510;-66
2021/01/12 05:00:25;;;;;;;38.42;18.25;;;-3273.70;78.80;;;-5.46;81.51;95907.44;4987431;28;20034;-63
2021/01/12 05:03:01;;;;;;;38.10;19.02;;;-3273.70;78.90;;;-5.44;81.27;95911.53;4986658;28;20110;-64
2021/01/12 05:05:31;;;;;;;35.72;17.95;;;-3273.80;78.90;;;-5.41;81.14;95902.84;4986151;28;20042;-65
2021/01/12 05:08:09;;;;;;;36.63;18.50;;;-3273.90;78.80;;;-5.39;81.52;95895.88;4986335;28;20068;-66
2021/01/12 05:10:39;;;;;;;39.25;18.83;;;-3273.90;78.90;;;-5.38;81.16;95892.41;4989882;28;20039;-68
2021/01/12 05:13:05;;;;;;;37.28;19.35;;;-3273.90;78.90;;;-5.34;80.96;95883.59;4998272;28;20490;-67
2021/01/12 05:15:31;;;;;;;37.47;18.67;;;-3273.80;79.20;;;-5.31;80.72;95878.28;4987749;28;20111;-66
2021/01/12 05:17:59;;;;;;;38.03;19.55;;;-3273.90;79.30;;;-5.26;81.09;95871.09;4993735;28;20041;-66
2021/01/12 05:20:25;;;;;;;38.90;19.40;;;-3273.90;79.60;;;-5.22;81.28;95862.28;5005379;28;20586;-68
2021/01/12 05:23:08;;;;;;;40.10;19.05;;;-3274.00;79.80;;;-5.15;81.77;95868.69;5005665;28;20086;-66
2021/01/12 05:25:39;;;;;;;36.08;17.80;;;-3274.00;79.70;;;-5.08;81.44;95867.34;4994446;28;20112;-66
2021/01/12 05:28:09;;;;;;;38.63;20.33;;;-3274.10;79.90;;;-5.01;81.33;95848.06;5006201;28;20160;-65
2021/01/12 05:30:35;;;;;;;35.03;16.88;;;-3274.10;79.70;;;-4.94;81.23;95857.03;4996753;28;20113;-66
2021/01/12 05:33:01;;;;;;;38.85;17.73;;;-3274.30;80.00;;;-4.86;81.30;95858.25;4984353;28;20134;-66
2021/01/12 05:35:36;;;;;;;37.20;17.77;;;-3274.30;80.00;;;-4.80;82.08;95862.97;4997114;28;20043;-68
2021/01/12 05:38:04;;;;;;;36.42;16.67;;;-3274.40;80.20;;;-4.73;81.47;95853.97;4987550;28;20153;-67
2021/01/12 05:40:32;;;;;;;34.22;16.65;;;-3274.40;80.20;;;-4.66;81.56;95862.91;4987293;28;20030;-68
2021/01/12 05:43:31;;;;;;;35.35;17.90;;;-3274.60;80.30;;;-4.57;82.59;95849.44;4986246;28;20120;-67
2021/01/12 05:45:56;;;;;;;31.55;16.52;;;-3274.60;80.30;;;-4.51;81.47;95848.22;4987573;28;20039;-67
2021/01/12 05:48:22;;;;;;;32.22;16.02;;;-3274.60;80.40;;;-4.46;81.38;95839.28;4985970;28;20042;-67
2021/01/12 05:50:48;;;;;;;36.33;16.02;;;-3274.80;79.80;;;-4.40;81.24;95848.31;4986836;28;20065;-67
2021/01/12 05:53:15;;;;;;;33.22;16.02;;;-3274.80;79.60;;;-4.36;81.33;95848.00;4970231;28;20065;-67
2021/01/12 05:55:43;;;;;;;32.33;16.38;;;-3274.80;79.50;;;-4.32;81.17;95831.47;4987106;28;20034;-68
2021/01/12 05:58:19;;;;;;;35.55;16.50;;;-3274.90;79.60;;;-4.27;81.95;95830.34;4986414;28;20073;-67
2021/01/12 06:00:47;;;;;;;32.10;16.38;;;-3275.00;79.60;;;-4.24;81.45;95832.69;4987034;28;20039;-62
2021/01/12 06:03:16;;;;;;;29.63;15.90;;;-3275.00;79.30;;;-4.21;81.52;95833.31;4969958;28;20026;-63
2021/01/12 06:05:46;;;;;;;34.30;16.08;;;-3275.00;79.30;;;-4.18;81.34;95829.69;4987138;28;20045;-63
2021/01/12 06:08:15;;;;;;;35.97;15.50;;;-3275.00;79.10;;;-4.15;81.28;95822.59;4987073;28;20042;-63
2021/01/12 06:10:44;;;;;;;31.33;15.00;;;-3275.00;79.00;;;-4.11;81.15;95820.63;4951147;28;20959;-63
2021/01/12 06:13:17;;;;;;;28.90;14.55;;;-3275.10;78.70;;;-4.10;81.38;95817.13;4985201;28;20038;-65
2021/01/12 06:15:47;;;;;;;31.42;14.60;;;-3275.10;78.70;;;-4.12;81.28;95799.28;4986768;28;20085;-65
2021/01/12 06:18:17;;;;;;;28.48;14.85;;;-3275.20;78.60;;;-4.05;81.21;95797.94;4985687;28;20041;-66
2021/01/12 06:21:06;;;;;;;28.50;14.25;;;-3275.10;78.70;;;-4.02;81.42;95794.31;4986555;28;20635;-65
2021/01/12 06:23:56;;;;;;;27.02;13.77;;;-3275.00;78.70;;;-3.99;81.10;95798.44;4989559;28;20430;-65
2021/01/12 06:26:21;;;;;;;27.88;14.27;;;-3275.10;78.70;;;-3.97;81.00;95806.84;4996131;28;20559;-66
2021/01/12 06:28:47;;;;;;;27.70;13.93;;;-3275.10;78.60;;;-3.94;80.92;95806.63;4981802;28;20046;-65
2021/01/12 06:31:13;;;;;;;24.85;12.70;;;-3275.10;78.80;;;-3.94;80.89;95789.47;5008385;28;20026;-66
2021/01/12 06:33:39;;;;;;;26.50;13.30;;;-3275.10;78.60;;;-3.93;80.63;95788.53;4993344;28;20039;-67
2021/01/12 06:36:06;;;;;;;26.65;13.05;;;-3275.20;78.60;;;-3.89;80.86;95781.44;4999277;28;20034;-62
2021/01/12 06:38:36;;;;;;;27.35;13.23;;;-3275.20;78.50;;;-3.87;81.14;95772.69;5005668;28;20038;-66
2021/01/12 06:41:02;;;;;;;32.45;14.88;;;-3275.20;78.70;;;-3.85;80.70;95773.38;4993352;28;20056;-67
2021/01/12 06:43:28;;;;;;;26.63;13.88;;;-3275.20;78.80;;;-3.84;80.94;95764.78;4963851;28;20514;-69
2021/01/12 06:45:55;;;;;;;27.17;13.35;;;-3275.30;78.70;;;-3.80;80.69;95779.03;4992238;28;20038;-69
2021/01/12 06:48:20;;;;;;;25.48;12.55;;;-3275.30;78.60;;;-3.77;80.94;95778.81;4991071;28;20068;-69
2021/01/12 06:50:47;;;;;;;22.23;11.88;;;-3275.40;78.60;;;-3.73;80.69;95784.56;4991330;28;20088;-69
2021/01/12 06:53:13;;;;;;;26.10;13.00;;;-3275.50;78.50;;;-3.71;81.09;95783.50;4990465;28;20053;-70
2021/01/12 06:55:39;;;;;;;27.00;13.85;;;-3275.50;78.40;;;-3.68;81.10;95782.47;4991956;28;20038;-71
2021/01/12 06:58:09;;;;;;;25.92;12.63;;;-3275.50;78.50;;;-3.65;81.47;95777.09;4989784;28;20057;-70
2021/01/12 07:00:38;;;;;;;23.38;12.05;;;-3275.60;78.60;;;-3.62;81.00;95770.91;4974779;28;20124;-71
2021/01/12 07:03:05;;;;;;;21.25;11.07;;;-3275.60;78.90;;;-3.59;81.10;95765.59;4990411;28;20026;-71
2021/01/12 07:05:38;;;;;;;23.58;11.40;;;-3275.70;78.90;;;-3.53;82.17;95777.97;4991759;28;20030;-72
2021/01/12 07:08:10;;;;;;;19.48;9.90;;;-3275.70;79.50;;;-3.47;82.13;95767.25;4990658;28;20030;-71
2021/01/12 07:10:42;;;;;;;15.88;9.15;;;-3275.80;79.80;;;-3.41;82.22;95753.94;4990733;28;20038;-71
2021/01/12 07:13:08;;;;;;;16.20;9.02;;;-3275.90;79.80;;;-3.31;81.34;95756.69;4991122;28;20026;-72
2021/01/12 07:15:50;;;;;;;17.58;10.05;;;-3275.90;80.00;;;-3.24;81.76;95755.28;4991984;28;20762;-73
2021/01/12 07:18:25;;;;;;;19.88;10.02;;;-3276.00;80.20;;;-3.17;82.88;95754.72;4989747;28;20088;-68
2021/01/12 07:20:51;;;;;;;17.40;9.15;;;-3276.10;80.20;;;-3.10;81.97;95748.19;4974034;28;20031;-71
2021/01/12 07:23:17;;;;;;;23.70;10.73;;;-3276.20;80.10;;;-3.02;82.04;95739.06;4991155;28;20034;-66
2021/01/12 07:25:44;;;;;;;15.40;7.97;;;-3276.20;79.90;;;-2.95;81.58;95741.06;4972575;28;20070;-68
2021/01/12 07:28:18;;;;;;;15.40;7.72;;;-3276.20;79.90;;;-2.88;82.15;95741.44;4989676;28;20046;-68
2021/01/12 07:30:51;;;;;;;16.40;7.78;;;-3276.30;79.80;;;-2.82;82.04;95735.81;4991095;28;20031;-68
2021/01/12 07:33:17;;;;;;;17.20;8.60;;;-3276.40;79.80;;;-2.77;81.82;95719.09;4990289;28;20030;-68
2021/01/12 07:35:47;;;;;;;14.20;7.88;;;-3276.50;79.90;;;-2.70;81.89;95716.88;4990704;28;20149;-67
2021/01/12 07:38:17;;;;;;;14.43;7.25;;;-3276.50;79.40;;;-2.62;81.56;95719.69;4989899;28;20417;-67
2021/01/12 07:40:42;;;;;;;13.90;7.22;;;-3276.60;79.40;;;-2.56;81.33;95706.31;4990775;28;20026;-70
2021/01/12 07:43:20;;;;;;;14.82;7.82;;;-3276.60;79.30;;;-2.51;82.08;95709.34;4989955;28;20114;-70
2021/01/12 07:45:53;;;;;;;12.88;7.35;;;-3276.70;79.10;;;-2.43;81.41;95710.53;4990780;28;20030;-67
2021/01/12 07:48:18;;;;;;;11.45;6.65;;;0.00;79.00;;;-2.38;81.25;95716.16;4988732;28;20034;-67
2021/01/12 07:50:46;;;;;;;13.90;7.00;;;0.00;78.90;;;-2.33;81.30;95706.31;4989885;28;20112;-71
2021/01/12 07:53:12;;;;;;;12.65;7.00;;;0.00;78.80;;;-2.25;81.17;95698.81;4989000;28;20100;-68
2021/01/12 07:55:42;;;;;;;10.75;6.03;;;0.10;78.70;;;-2.18;81.70;95699.97;4990475;28;20100;-68
2021/01/12 07:58:13;;;;;;;9.98;5.50;;;0.10;78.50;;;-2.11;81.69;95685.63;4972806;28;20038;-67
2021/01/12 08:00:39;;;;;;;12.02;6.45;;;0.20;78.30;;;-2.04;80.86;95686.78;4989818;28;20034;-67
2021/01/12 08:03:05;;;;;;;10.77;6.13;;;0.20;78.10;;;-1.96;81.29;95688.78;4989632;28;20027;-67
2021/01/12 08:05:31;;;;;;;9.48;5.32;;;0.40;78.60;;;-1.85;81.41;95688.72;4990147;28;20053;-68
2021/01/12 08:08:05;;;;;;;10.25;5.20;;;0.50;77.80;;;-1.76;80.92;95679.44;4971992;28;20073;-70
2021/01/12 08:10:32;;;;;;;11.55;6.10;;;0.50;77.30;;;-1.70;81.08;95677.19;4987343;28;20406;-69
2021/01/12 08:13:08;;;;;;;8.88;5.43;;;0.70;77.20;;;-1.62;80.68;95676.53;4987349;28;20035;-71
2021/01/12 08:15:37;;;;;;;8.52;4.25;;;0.70;76.80;;;-1.57;80.43;95682.16;4988764;28;20022;-71
2021/01/12 08:18:18;;;;;;;10.25;5.38;;;0.70;76.80;;;-1.49;80.06;95682.34;4988159;28;20034;-68
2021/01/12 08:20:45;;;;;;;8.15;4.65;;;0.80;76.20;;;-1.43;80.52;95668.94;4988730;28;20125;-68
2021/01/12 08:23:11;;;;;;;8.95;4.72;;;0.90;76.30;;;-1.38;80.86;95669.38;4988459;28;20113;-70
2021/01/12 08:25:37;;;;;;;6.70;4.18;;;1.00;76.70;;;-1.31;80.46;95680.84;4989001;28;20034;-67
2021/01/12 08:28:04;;;;;;;7.53;3.92;;;1.10;75.80;;;-1.24;80.19;95661.31;4989415;28;20038;-66
2021/01/12 08:30:33;;;;;;;7.78;4.13;;;1.10;75.30;;;-1.17;79.92;95660.81;4989344;28;20042;-67
2021/01/12 08:33:24;;;;;;;7.15;3.70;;;1.10;75.10;;;-1.10;79.38;95652.44;4989251;28;20113;-66
2021/01/12 08:36:06;;;;;;;10.55;5.28;;;1.20;75.00;;;-1.02;79.20;95649.22;4972355;28;20121;-69
2021/01/12 08:38:32;;;;;;;10.43;4.72;;;1.20;74.70;;;-0.96;79.87;95653.84;4985836;28;20042;-67
2021/01/12 08:40:57;;;;;;;9.40;4.88;;;1.40;74.60;;;-0.89;79.86;95652.41;5007671;28;20072;-66
2021/01/12 08:43:28;;;;;;;7.88;4.20;;;1.40;74.30;;;-0.82;79.05;95643.19;4988203;28;20080;-67
2021/01/12 08:46:00;;;;;;;8.60;3.92;;;1.50;73.90;;;-0.74;78.44;95633.00;5007156;28;20034;-68
2021/01/12 08:48:26;;;;;;;10.20;5.38;;;1.60;73.60;;;-0.67;78.96;95628.97;5005534;28;20065;-67
2021/01/12 08:50:52;;;;;;;5.57;3.10;;;1.70;73.50;;;-0.58;79.20;95631.72;5038752;28;20042;-70
2021/01/12 08:53:18;;;;;;;6.35;3.08;;;1.70;72.90;;;-0.51;79.04;95628.44;5007422;28;20061;-67
2021/01/12 08:55:44;;;;;;;5.70;3.20;;;1.80;72.60;;;-0.44;78.83;95608.91;5009218;28;20413;-68
2021/01/12 08:58:10;;;;;;;5.18;2.80;;;1.80;72.70;;;-0.38;78.70;95615.31;5007410;28;20042;-70
2021/01/12 09:00:40;;;;;;;4.55;2.45;;;1.90;72.50;;;-0.29;77.53;95608.50;5007163;28;20041;-67
2021/01/12 09:03:06;;;;;;;6.93;3.10;;;1.90;72.10;;;-0.22;78.46;95607.84;5008866;28;20033;-66
2021/01/12 09:05:40;;;;;;;6.03;2.80;;;2.00;72.50;;;-0.15;76.94;95608.13;5008887;28;20492;-63
2021/01/12 09:08:07;;;;;;;5.63;3.33;;;2.10;72.20;;;-0.10;77.76;95606.75;5008095;28;20065;-67
2021/01/12 09:10:34;;;;;;;10.02;5.30;;;2.10;72.10;;;-0.04;78.16;95616.53;4990800;28;20105;-69
2021/01/12 09:13:00;;;;;;;5.90;2.67;;;2.30;72.20;;;0.03;77.80;95595.34;5008542;28;20037;-67
2021/01/12 09:15:28;;;;;;;5.10;2.88;;;2.30;71.60;;;0.08;77.67;95587.97;5007638;28;20469;-67
2021/01/12 09:18:19;;;;;;;4.97;2.78;;;2.30;71.60;;;0.15;76.81;95604.56;5007575;28;20030;-67
2021/01/12 09:20:54;;;;;;;;;;;2.40;71.70;;;0.21;76.25;95614.34;5006106;28;20038;-67
2021/01/12 09:23:20;;;;;;;6.30;3.25;;;2.40;71.60;;;0.24;77.89;95598.59;5004914;28;20369;-66
2021/01/12 09:25:54;;;;;;;5.28;2.42;;;2.40;71.80;;;0.30;76.54;95609.19;5007497;28;20030;-68
2021/01/12 09:28:24;;;;;;;4.95;2.58;;;2.60;71.60;;;0.35;77.16;95593.25;5002505;28;20053;-67
2021/01/12 09:30:51;;;;;;;3.67;2.30;;;2.60;71.20;;;0.41;77.56;95577.16;5005454;28;20034;-67
2021/01/12 09:33:23;;;;;;;10.02;3.83;;;2.60;71.10;;;0.49;76.19;95584.25;5006668;28;20037;-68
2021/01/12 09:36:14;;;;;;;9.00;4.65;;;2.70;71.00;;;0.56;76.16;95588.72;5007034;28;20030;-68
2021/01/12 09:38:44;;;;;;;7.22;2.67;;;2.80;70.90;;;0.63;76.03;95582.97;4974634;28;20209;-70
2021/01/12 09:41:10;;;;;;;3.92;2.30;;;2.80;71.10;;;0.69;77.13;95597.97;5006685;28;20528;-70
2021/01/12 09:43:36;;;;;;;7.15;2.60;;;2.90;70.80;;;0.75;76.32;95589.63;5007570;28;20034;-70
2021/01/12 09:46:02;;;;;;;7.63;4.10;;;3.00;70.50;;;0.81;76.76;95597.63;5008821;28;20030;-68
2021/01/12 09:48:27;;;;;;;5.35;2.78;;;3.10;70.20;;;0.88;77.22;95582.34;5006727;28;20506;-71
2021/01/12 09:50:53;;;;;;;9.40;5.18;;;3.10;70.00;;;0.93;76.90;95572.41;5005474;28;20057;-70
2021/01/12 09:53:19;;;;;;;4.30;2.40;;;3.10;70.40;;;0.93;76.62;95585.34;5006844;28;20037;-71
2021/01/12 09:55:46;;;;;;;5.95;2.80;;;3.10;70.80;;;0.97;76.57;95560.78;5008191;28;20030;-70
2021/01/12 09:58:11;;;;;;;4.93;2.75;;;3.10;70.90;;;1.01;76.20;95572.50;5010555;28;20034;-71
2021/01/12 10:00:37;;;;;;;4.57;2.53;;;3.00;71.40;;;1.06;75.60;95574.66;5010782;28;20042;-70